sensor_id;sensor_type;location;lat;lon;timestamp;pressure;altitude;pressure_sealevel;temperature
70415;BMP280;57837;52.064;113.478;2023-07-29T00:01:58;93233.94;;;29.01
70415;BMP280;57837;52.064;113.478;2023-07-29T00:05:02;93228.53;;;30.59
70415;BMP280;57837;52.064;113.478;2023-07-29T00:08:06;93234.88;;;30.06
70415;BMP280;57837;52.064;113.478;2023-07-29T00:11:10;93234.41;;;29.86
70415;BMP280;57837;52.064;113.478;2023-07-29T00:14:14;93239.72;;;29.30
70415;BMP280;57837;52.064;113.478;2023-07-29T00:17:18;93242.00;;;28.92
70415;BMP280;57837;52.064;113.478;2023-07-29T00:20:23;93232.38;;;30.68
70415;BMP280;57837;52.064;113.478;2023-07-29T00:23:27;93235.00;;;32.08
70415;BMP280;57837;52.064;113.478;2023-07-29T00:26:31;93243.34;;;32.70
70415;BMP280;57837;52.064;113.478;2023-07-29T00:29:38;93249.03;;;33.50
70415;BMP280;57837;52.064;113.478;2023-07-29T00:32:41;93247.56;;;33.94
70415;BMP280;57837;52.064;113.478;2023-07-29T00:35:47;93252.44;;;34.15
70415;BMP280;57837;52.064;113.478;2023-07-29T00:38:51;93237.78;;;34.18
70415;BMP280;57837;52.064;113.478;2023-07-29T00:41:57;93239.53;;;34.27
70415;BMP280;57837;52.064;113.478;2023-07-29T00:45:01;93237.09;;;34.51
70415;BMP280;57837;52.064;113.478;2023-07-29T00:48:05;93239.09;;;34.50
70415;BMP280;57837;52.064;113.478;2023-07-29T00:51:09;93244.13;;;34.25
70415;BMP280;57837;52.064;113.478;2023-07-29T00:54:14;93245.94;;;34.53
70415;BMP280;57837;52.064;113.478;2023-07-29T00:57:17;93248.81;;;35.10
70415;BMP280;57837;52.064;113.478;2023-07-29T01:00:23;93245.56;;;35.14
70415;BMP280;57837;52.064;113.478;2023-07-29T01:03:28;93244.88;;;35.70
70415;BMP280;57837;52.064;113.478;2023-07-29T01:13:43;93235.78;;;33.54
70415;BMP280;57837;52.064;113.478;2023-07-29T01:16:55;93232.19;;;30.52
70415;BMP280;57837;52.064;113.478;2023-07-29T01:20:07;93244.69;;;29.24
70415;BMP280;57837;52.064;113.478;2023-07-29T01:23:11;93246.53;;;32.37
70415;BMP280;57837;52.064;113.478;2023-07-29T01:26:15;93244.88;;;33.94
70415;BMP280;57837;52.064;113.478;2023-07-29T01:29:19;93239.94;;;34.72
70415;BMP280;57837;52.064;113.478;2023-07-29T01:32:34;93244.00;;;33.43
70415;BMP280;57837;52.064;113.478;2023-07-29T01:35:46;93253.75;;;34.14
70415;BMP280;57837;52.064;113.478;2023-07-29T01:38:52;93254.34;;;34.79
70415;BMP280;57837;52.064;113.478;2023-07-29T01:41:57;93245.22;;;35.61
70415;BMP280;57837;52.064;113.478;2023-07-29T01:45:03;93246.41;;;36.36
70415;BMP280;57837;52.064;113.478;2023-07-29T01:48:07;93239.97;;;36.04
70415;BMP280;57837;52.064;113.478;2023-07-29T01:51:11;93239.31;;;35.27
70415;BMP280;57837;52.064;113.478;2023-07-29T01:54:15;93246.72;;;34.91
70415;BMP280;57837;52.064;113.478;2023-07-29T01:57:19;93243.78;;;34.67
70415;BMP280;57837;52.064;113.478;2023-07-29T02:00:24;93247.91;;;34.02
70415;BMP280;57837;52.064;113.478;2023-07-29T02:03:28;93248.06;;;34.39
70415;BMP280;57837;52.064;113.478;2023-07-29T02:06:32;93244.38;;;34.31
70415;BMP280;57837;52.064;113.478;2023-07-29T02:09:36;93252.78;;;34.23
70415;BMP280;57837;52.064;113.478;2023-07-29T02:12:40;93252.72;;;34.05
70415;BMP280;57837;52.064;113.478;2023-07-29T02:15:44;93244.31;;;34.13
70415;BMP280;57837;52.064;113.478;2023-07-29T02:18:47;93256.25;;;34.10
70415;BMP280;57837;52.064;113.478;2023-07-29T02:21:51;93242.16;;;33.78
70415;BMP280;57837;52.064;113.478;2023-07-29T02:24:54;93242.63;;;33.73
70415;BMP280;57837;52.064;113.478;2023-07-29T02:27:57;93249.09;;;33.83
70415;BMP280;57837;52.064;113.478;2023-07-29T02:31:17;93250.19;;;33.31
70415;BMP280;57837;52.064;113.478;2023-07-29T02:34:22;93250.94;;;33.48
70415;BMP280;57837;52.064;113.478;2023-07-29T02:37:27;93244.09;;;33.76
70415;BMP280;57837;52.064;113.478;2023-07-29T02:40:33;93249.50;;;34.09
70415;BMP280;57837;52.064;113.478;2023-07-29T02:43:38;93244.34;;;33.66
70415;BMP280;57837;52.064;113.478;2023-07-29T02:46:43;93244.75;;;33.00
70415;BMP280;57837;52.064;113.478;2023-07-29T02:49:47;93245.31;;;32.27
70415;BMP280;57837;52.064;113.478;2023-07-29T02:52:51;93252.44;;;32.22
70415;BMP280;57837;52.064;113.478;2023-07-29T02:55:55;93241.41;;;33.45
70415;BMP280;57837;52.064;113.478;2023-07-29T02:58:58;93239.06;;;33.99
70415;BMP280;57837;52.064;113.478;2023-07-29T03:02:04;93235.72;;;34.85
70415;BMP280;57837;52.064;113.478;2023-07-29T03:05:08;93233.41;;;35.89
70415;BMP280;57837;52.064;113.478;2023-07-29T03:08:12;93230.66;;;35.11
70415;BMP280;57837;52.064;113.478;2023-07-29T03:11:17;93231.63;;;34.49
70415;BMP280;57837;52.064;113.478;2023-07-29T03:14:21;93230.91;;;34.31
70415;BMP280;57837;52.064;113.478;2023-07-29T03:17:24;93228.16;;;34.99
70415;BMP280;57837;52.064;113.478;2023-07-29T03:20:27;93221.25;;;35.12
70415;BMP280;57837;52.064;113.478;2023-07-29T03:23:32;93215.34;;;34.62
70415;BMP280;57837;52.064;113.478;2023-07-29T03:26:37;93213.78;;;34.22
70415;BMP280;57837;52.064;113.478;2023-07-29T03:29:41;93219.34;;;34.44
70415;BMP280;57837;52.064;113.478;2023-07-29T03:32:44;93217.97;;;34.09
70415;BMP280;57837;52.064;113.478;2023-07-29T03:35:48;93212.00;;;33.95
70415;BMP280;57837;52.064;113.478;2023-07-29T03:38:52;93219.97;;;33.15
70415;BMP280;57837;52.064;113.478;2023-07-29T03:41:56;93222.94;;;32.63
70415;BMP280;57837;52.064;113.478;2023-07-29T03:45:00;93217.91;;;32.28
70415;BMP280;57837;52.064;113.478;2023-07-29T03:48:05;93208.38;;;32.25
70415;BMP280;57837;52.064;113.478;2023-07-29T03:51:08;93212.94;;;32.23
70415;BMP280;57837;52.064;113.478;2023-07-29T03:54:12;93215.94;;;32.15
70415;BMP280;57837;52.064;113.478;2023-07-29T03:57:16;93205.50;;;32.35
70415;BMP280;57837;52.064;113.478;2023-07-29T04:00:19;93210.97;;;32.10
70415;BMP280;57837;52.064;113.478;2023-07-29T04:03:23;93204.91;;;31.95
70415;BMP280;57837;52.064;113.478;2023-07-29T04:06:27;93203.81;;;31.60
70415;BMP280;57837;52.064;113.478;2023-07-29T04:09:31;93188.00;;;31.13
70415;BMP280;57837;52.064;113.478;2023-07-29T04:12:34;93196.03;;;30.88
70415;BMP280;57837;52.064;113.478;2023-07-29T04:15:37;93197.28;;;30.99
70415;BMP280;57837;52.064;113.478;2023-07-29T04:18:41;93192.19;;;31.16
70415;BMP280;57837;52.064;113.478;2023-07-29T04:21:44;93197.72;;;31.07
70415;BMP280;57837;52.064;113.478;2023-07-29T04:24:48;93192.19;;;31.16
70415;BMP280;57837;52.064;113.478;2023-07-29T04:27:52;93194.63;;;31.12
70415;BMP280;57837;52.064;113.478;2023-07-29T04:30:55;93180.00;;;31.13
70415;BMP280;57837;52.064;113.478;2023-07-29T04:33:59;93180.66;;;31.14
70415;BMP280;57837;52.064;113.478;2023-07-29T04:37:04;93174.03;;;30.90
70415;BMP280;57837;52.064;113.478;2023-07-29T04:40:09;93180.59;;;30.50
70415;BMP280;57837;52.064;113.478;2023-07-29T04:43:12;93180.28;;;30.32
70415;BMP280;57837;52.064;113.478;2023-07-29T04:46:16;93176.13;;;30.06
70415;BMP280;57837;52.064;113.478;2023-07-29T04:49:20;93181.91;;;30.14
70415;BMP280;57837;52.064;113.478;2023-07-29T04:52:24;93166.94;;;30.09
70415;BMP280;57837;52.064;113.478;2023-07-29T04:55:27;93171.69;;;30.11
70415;BMP280;57837;52.064;113.478;2023-07-29T04:58:31;93172.38;;;29.99
70415;BMP280;57837;52.064;113.478;2023-07-29T05:01:37;93180.66;;;29.92
70415;BMP280;57837;52.064;113.478;2023-07-29T05:04:41;93171.94;;;29.91
70415;BMP280;57837;52.064;113.478;2023-07-29T05:07:45;93169.63;;;29.86
70415;BMP280;57837;52.064;113.478;2023-07-29T05:10:49;93170.34;;;29.86
70415;BMP280;57837;52.064;113.478;2023-07-29T05:13:53;93170.22;;;29.96
70415;BMP280;57837;52.064;113.478;2023-07-29T05:16:57;93176.13;;;29.94
70415;BMP280;57837;52.064;113.478;2023-07-29T05:20:00;93169.16;;;29.89
70415;BMP280;57837;52.064;113.478;2023-07-29T05:23:04;93173.09;;;29.88
70415;BMP280;57837;52.064;113.478;2023-07-29T05:26:08;93178.56;;;29.67
70415;BMP280;57837;52.064;113.478;2023-07-29T05:29:13;93170.09;;;29.71
70415;BMP280;57837;52.064;113.478;2023-07-29T05:32:17;93162.41;;;29.77
70415;BMP280;57837;52.064;113.478;2023-07-29T05:35:23;93165.56;;;29.85
70415;BMP280;57837;52.064;113.478;2023-07-29T05:38:26;93167.31;;;29.80
70415;BMP280;57837;52.064;113.478;2023-07-29T05:41:30;93168.72;;;29.81
70415;BMP280;57837;52.064;113.478;2023-07-29T05:44:34;93157.53;;;29.85
70415;BMP280;57837;52.064;113.478;2023-07-29T05:47:38;93159.41;;;29.94
70415;BMP280;57837;52.064;113.478;2023-07-29T05:50:42;93163.03;;;29.87
70415;BMP280;57837;52.064;113.478;2023-07-29T05:53:46;93160.72;;;29.70
70415;BMP280;57837;52.064;113.478;2023-07-29T05:56:49;93156.69;;;29.48
70415;BMP280;57837;52.064;113.478;2023-07-29T05:59:53;93150.97;;;29.18
70415;BMP280;57837;52.064;113.478;2023-07-29T06:02:57;93149.25;;;29.11
70415;BMP280;57837;52.064;113.478;2023-07-29T06:06:01;93138.22;;;29.17
70415;BMP280;57837;52.064;113.478;2023-07-29T06:09:04;93144.47;;;29.21
70415;BMP280;57837;52.064;113.478;2023-07-29T06:12:09;93136.75;;;29.49
70415;BMP280;57837;52.064;113.478;2023-07-29T06:15:13;93136.19;;;29.50
70415;BMP280;57837;52.064;113.478;2023-07-29T06:18:17;93134.34;;;29.41
70415;BMP280;57837;52.064;113.478;2023-07-29T06:21:20;93135.91;;;29.23
70415;BMP280;57837;52.064;113.478;2023-07-29T06:24:25;93142.97;;;29.18
70415;BMP280;57837;52.064;113.478;2023-07-29T06:27:28;93131.84;;;29.10
70415;BMP280;57837;52.064;113.478;2023-07-29T06:30:33;93130.44;;;29.09
70415;BMP280;57837;52.064;113.478;2023-07-29T06:33:36;93127.28;;;29.01
70415;BMP280;57837;52.064;113.478;2023-07-29T06:36:41;93132.50;;;28.99
70415;BMP280;57837;52.064;113.478;2023-07-29T06:39:44;93121.41;;;29.14
70415;BMP280;57837;52.064;113.478;2023-07-29T06:42:48;93123.63;;;29.18
70415;BMP280;57837;52.064;113.478;2023-07-29T06:45:52;93107.13;;;29.10
70415;BMP280;57837;52.064;113.478;2023-07-29T06:48:56;93112.69;;;29.02
70415;BMP280;57837;52.064;113.478;2023-07-29T06:52:00;93108.59;;;29.01
70415;BMP280;57837;52.064;113.478;2023-07-29T06:55:05;93110.13;;;29.04
70415;BMP280;57837;52.064;113.478;2023-07-29T06:58:09;93111.28;;;29.01
70415;BMP280;57837;52.064;113.478;2023-07-29T07:01:12;93108.38;;;28.97
70415;BMP280;57837;52.064;113.478;2023-07-29T07:04:15;93102.19;;;28.95
70415;BMP280;57837;52.064;113.478;2023-07-29T07:07:19;93109.75;;;28.87
70415;BMP280;57837;52.064;113.478;2023-07-29T07:10:22;93106.69;;;28.80
70415;BMP280;57837;52.064;113.478;2023-07-29T07:13:26;93109.38;;;28.80
70415;BMP280;57837;52.064;113.478;2023-07-29T07:16:29;93108.44;;;28.76
70415;BMP280;57837;52.064;113.478;2023-07-29T07:19:32;93109.13;;;28.76
70415;BMP280;57837;52.064;113.478;2023-07-29T07:22:36;93107.28;;;28.79
70415;BMP280;57837;52.064;113.478;2023-07-29T07:25:39;93106.16;;;28.82
70415;BMP280;57837;52.064;113.478;2023-07-29T07:28:43;93105.81;;;28.88
70415;BMP280;57837;52.064;113.478;2023-07-29T07:31:51;93116.38;;;28.86
70415;BMP280;57837;52.064;113.478;2023-07-29T07:34:56;93113.56;;;28.83
70415;BMP280;57837;52.064;113.478;2023-07-29T07:37:59;93109.38;;;28.80
70415;BMP280;57837;52.064;113.478;2023-07-29T07:41:05;93097.44;;;28.81
70415;BMP280;57837;52.064;113.478;2023-07-29T07:44:08;93106.84;;;28.83
70415;BMP280;57837;52.064;113.478;2023-07-29T07:47:11;93102.97;;;28.74
70415;BMP280;57837;52.064;113.478;2023-07-29T07:50:15;93094.03;;;28.69
70415;BMP280;57837;52.064;113.478;2023-07-29T07:53:19;93089.88;;;28.78
70415;BMP280;57837;52.064;113.478;2023-07-29T07:56:25;93083.66;;;28.85
70415;BMP280;57837;52.064;113.478;2023-07-29T07:59:28;93078.56;;;28.89
70415;BMP280;57837;52.064;113.478;2023-07-29T08:02:31;93081.81;;;28.88
70415;BMP280;57837;52.064;113.478;2023-07-29T08:05:36;93079.72;;;28.86
70415;BMP280;57837;52.064;113.478;2023-07-29T08:08:39;93078.78;;;28.81
70415;BMP280;57837;52.064;113.478;2023-07-29T08:11:42;93077.00;;;28.74
70415;BMP280;57837;52.064;113.478;2023-07-29T08:14:46;93072.13;;;28.71
70415;BMP280;57837;52.064;113.478;2023-07-29T08:17:50;93064.81;;;28.71
70415;BMP280;57837;52.064;113.478;2023-07-29T08:20:55;93074.13;;;28.70
70415;BMP280;57837;52.064;113.478;2023-07-29T08:24:00;93073.41;;;28.70
70415;BMP280;57837;52.064;113.478;2023-07-29T08:27:04;93070.88;;;28.72
70415;BMP280;57837;52.064;113.478;2023-07-29T08:30:07;93065.78;;;28.76
70415;BMP280;57837;52.064;113.478;2023-07-29T08:33:11;93070.09;;;28.81
70415;BMP280;57837;52.064;113.478;2023-07-29T08:36:14;93074.84;;;28.83
70415;BMP280;57837;52.064;113.478;2023-07-29T08:39:17;93073.72;;;28.86
70415;BMP280;57837;52.064;113.478;2023-07-29T08:42:23;93078.44;;;28.87
70415;BMP280;57837;52.064;113.478;2023-07-29T08:45:34;93069.06;;;28.86
70415;BMP280;57837;52.064;113.478;2023-07-29T08:48:42;93068.38;;;28.86
70415;BMP280;57837;52.064;113.478;2023-07-29T08:51:48;93057.91;;;28.78
70415;BMP280;57837;52.064;113.478;2023-07-29T08:54:52;93060.78;;;28.70
70415;BMP280;57837;52.064;113.478;2023-07-29T08:57:57;93058.78;;;28.71
70415;BMP280;57837;52.064;113.478;2023-07-29T09:01:01;93059.25;;;28.67
70415;BMP280;57837;52.064;113.478;2023-07-29T09:04:04;93069.09;;;28.65
70415;BMP280;57837;52.064;113.478;2023-07-29T09:07:07;93067.81;;;28.66
70415;BMP280;57837;52.064;113.478;2023-07-29T09:10:13;93066.56;;;28.67
70415;BMP280;57837;52.064;113.478;2023-07-29T09:13:17;93054.28;;;28.62
70415;BMP280;57837;52.064;113.478;2023-07-29T09:16:21;93061.91;;;28.56
70415;BMP280;57837;52.064;113.478;2023-07-29T09:19:27;93056.59;;;28.56
70415;BMP280;57837;52.064;113.478;2023-07-29T09:22:30;93058.28;;;28.51
70415;BMP280;57837;52.064;113.478;2023-07-29T09:25:34;93057.78;;;28.43
70415;BMP280;57837;52.064;113.478;2023-07-29T09:28:40;93058.03;;;28.47
70415;BMP280;57837;52.064;113.478;2023-07-29T09:31:44;93053.53;;;28.50
70415;BMP280;57837;52.064;113.478;2023-07-29T09:34:48;93056.88;;;28.50
70415;BMP280;57837;52.064;113.478;2023-07-29T09:37:52;93060.84;;;28.49
70415;BMP280;57837;52.064;113.478;2023-07-29T09:40:57;93061.72;;;28.42
70415;BMP280;57837;52.064;113.478;2023-07-29T09:44:03;93055.44;;;28.38
70415;BMP280;57837;52.064;113.478;2023-07-29T09:47:07;93062.28;;;28.41
70415;BMP280;57837;52.064;113.478;2023-07-29T09:50:11;93063.13;;;28.43
70415;BMP280;57837;52.064;113.478;2023-07-29T09:53:15;93070.84;;;28.39
70415;BMP280;57837;52.064;113.478;2023-07-29T09:56:27;93064.81;;;28.39
70415;BMP280;57837;52.064;113.478;2023-07-29T09:59:34;93057.28;;;28.35
70415;BMP280;57837;52.064;113.478;2023-07-29T10:02:42;93069.22;;;28.34
70415;BMP280;57837;52.064;113.478;2023-07-29T10:05:47;93064.34;;;28.31
70415;BMP280;57837;52.064;113.478;2023-07-29T10:08:51;93074.28;;;28.30
70415;BMP280;57837;52.064;113.478;2023-07-29T10:11:56;93073.59;;;28.30
70415;BMP280;57837;52.064;113.478;2023-07-29T10:15:05;93074.88;;;28.29
70415;BMP280;57837;52.064;113.478;2023-07-29T10:18:09;93065.38;;;28.26
70415;BMP280;57837;52.064;113.478;2023-07-29T10:21:13;93056.41;;;28.21
70415;BMP280;57837;52.064;113.478;2023-07-29T10:24:19;93066.94;;;28.19
70415;BMP280;57837;52.064;113.478;2023-07-29T10:27:55;93072.13;;;28.17
70415;BMP280;57837;52.064;113.478;2023-07-29T10:30:59;93064.34;;;28.09
70415;BMP280;57837;52.064;113.478;2023-07-29T10:34:03;93061.31;;;28.03
70415;BMP280;57837;52.064;113.478;2023-07-29T10:37:09;93068.47;;;28.01
70415;BMP280;57837;52.064;113.478;2023-07-29T10:40:13;93068.19;;;27.97
70415;BMP280;57837;52.064;113.478;2023-07-29T10:43:42;93063.59;;;27.97
70415;BMP280;57837;52.064;113.478;2023-07-29T10:46:46;93066.56;;;27.92
70415;BMP280;57837;52.064;113.478;2023-07-29T10:49:53;93061.50;;;27.86
70415;BMP280;57837;52.064;113.478;2023-07-29T10:52:57;93073.28;;;27.83
70415;BMP280;57837;52.064;113.478;2023-07-29T10:56:02;93069.00;;;27.78
70415;BMP280;57837;52.064;113.478;2023-07-29T11:02:18;93071.56;;;27.76
70415;BMP280;57837;52.064;113.478;2023-07-29T11:05:24;93070.56;;;27.72
70415;BMP280;57837;52.064;113.478;2023-07-29T11:08:28;93062.34;;;27.68
70415;BMP280;57837;52.064;113.478;2023-07-29T11:11:32;93068.22;;;27.66
70415;BMP280;57837;52.064;113.478;2023-07-29T11:14:36;93071.59;;;27.67
70415;BMP280;57837;52.064;113.478;2023-07-29T11:17:41;93074.56;;;27.61
70415;BMP280;57837;52.064;113.478;2023-07-29T11:20:45;93074.41;;;27.59
70415;BMP280;57837;52.064;113.478;2023-07-29T11:23:48;93068.81;;;27.55
70415;BMP280;57837;52.064;113.478;2023-07-29T11:26:51;93081.88;;;27.51
70415;BMP280;57837;52.064;113.478;2023-07-29T11:30:06;93087.75;;;27.49
70415;BMP280;57837;52.064;113.478;2023-07-29T11:33:09;93083.31;;;27.42
70415;BMP280;57837;52.064;113.478;2023-07-29T11:36:18;93095.06;;;27.39
70415;BMP280;57837;52.064;113.478;2023-07-29T11:39:23;93090.72;;;27.34
70415;BMP280;57837;52.064;113.478;2023-07-29T11:42:26;93089.78;;;27.30
70415;BMP280;57837;52.064;113.478;2023-07-29T11:45:31;93093.44;;;27.25
70415;BMP280;57837;52.064;113.478;2023-07-29T11:48:55;93098.50;;;27.21
70415;BMP280;57837;52.064;113.478;2023-07-29T11:51:58;93092.75;;;27.15
70415;BMP280;57837;52.064;113.478;2023-07-29T11:55:04;93093.03;;;27.09
70415;BMP280;57837;52.064;113.478;2023-07-29T11:58:07;93088.00;;;27.03
70415;BMP280;57837;52.064;113.478;2023-07-29T12:01:11;93098.25;;;26.97
70415;BMP280;57837;52.064;113.478;2023-07-29T12:04:14;93100.06;;;26.85
70415;BMP280;57837;52.064;113.478;2023-07-29T12:07:19;93100.09;;;26.66
70415;BMP280;57837;52.064;113.478;2023-07-29T12:10:23;93103.97;;;26.46
70415;BMP280;57837;52.064;113.478;2023-07-29T12:13:27;93099.88;;;26.26
70415;BMP280;57837;52.064;113.478;2023-07-29T12:16:31;93101.53;;;26.12
70415;BMP280;57837;52.064;113.478;2023-07-29T12:19:39;93106.66;;;26.00
70415;BMP280;57837;52.064;113.478;2023-07-29T12:22:44;93104.94;;;25.85
70415;BMP280;57837;52.064;113.478;2023-07-29T12:25:47;93104.63;;;25.72
70415;BMP280;57837;52.064;113.478;2023-07-29T12:28:52;93115.88;;;25.63
70415;BMP280;57837;52.064;113.478;2023-07-29T12:32:01;93115.69;;;25.51
70415;BMP280;57837;52.064;113.478;2023-07-29T12:35:09;93113.09;;;25.34
70415;BMP280;57837;52.064;113.478;2023-07-29T12:38:21;93116.22;;;25.23
70415;BMP280;57837;52.064;113.478;2023-07-29T12:41:25;93123.66;;;25.07
70415;BMP280;57837;52.064;113.478;2023-07-29T12:44:33;93122.72;;;24.95
70415;BMP280;57837;52.064;113.478;2023-07-29T12:47:36;93115.63;;;24.81
70415;BMP280;57837;52.064;113.478;2023-07-29T12:50:41;93119.63;;;24.72
70415;BMP280;57837;52.064;113.478;2023-07-29T12:53:44;93122.31;;;24.64
70415;BMP280;57837;52.064;113.478;2023-07-29T12:56:48;93131.22;;;24.59
70415;BMP280;57837;52.064;113.478;2023-07-29T12:59:52;93129.50;;;24.54
70415;BMP280;57837;52.064;113.478;2023-07-29T13:02:56;93127.38;;;24.53
70415;BMP280;57837;52.064;113.478;2023-07-29T13:05:59;93130.19;;;24.55
70415;BMP280;57837;52.064;113.478;2023-07-29T13:09:03;93120.16;;;24.53
70415;BMP280;57837;52.064;113.478;2023-07-29T13:12:08;93125.34;;;24.44
70415;BMP280;57837;52.064;113.478;2023-07-29T13:15:12;93130.00;;;24.36
70415;BMP280;57837;52.064;113.478;2023-07-29T13:18:16;93126.16;;;24.29
70415;BMP280;57837;52.064;113.478;2023-07-29T13:21:20;93127.50;;;24.20
70415;BMP280;57837;52.064;113.478;2023-07-29T13:24:23;93123.25;;;24.17
70415;BMP280;57837;52.064;113.478;2023-07-29T13:27:27;93125.66;;;24.06
70415;BMP280;57837;52.064;113.478;2023-07-29T13:30:32;93123.91;;;24.01
70415;BMP280;57837;52.064;113.478;2023-07-29T13:33:36;93122.50;;;24.00
70415;BMP280;57837;52.064;113.478;2023-07-29T13:36:40;93136.56;;;23.85
70415;BMP280;57837;52.064;113.478;2023-07-29T13:39:43;93129.34;;;23.78
70415;BMP280;57837;52.064;113.478;2023-07-29T13:42:47;93142.09;;;23.72
70415;BMP280;57837;52.064;113.478;2023-07-29T13:45:50;93153.41;;;23.65
70415;BMP280;57837;52.064;113.478;2023-07-29T13:48:55;93156.25;;;23.59
70415;BMP280;57837;52.064;113.478;2023-07-29T13:51:58;93162.25;;;23.52
70415;BMP280;57837;52.064;113.478;2023-07-29T13:55:01;93163.31;;;23.49
70415;BMP280;57837;52.064;113.478;2023-07-29T13:58:05;93177.28;;;23.35
70415;BMP280;57837;52.064;113.478;2023-07-29T14:01:09;93177.31;;;23.27
70415;BMP280;57837;52.064;113.478;2023-07-29T14:04:13;93178.94;;;23.23
70415;BMP280;57837;52.064;113.478;2023-07-29T14:07:16;93187.06;;;23.17
70415;BMP280;57837;52.064;113.478;2023-07-29T14:10:21;93181.06;;;23.16
70415;BMP280;57837;52.064;113.478;2023-07-29T14:13:24;93175.97;;;23.11
70415;BMP280;57837;52.064;113.478;2023-07-29T14:16:27;93181.78;;;23.09
70415;BMP280;57837;52.064;113.478;2023-07-29T14:19:31;93189.88;;;23.11
70415;BMP280;57837;52.064;113.478;2023-07-29T14:22:35;93194.63;;;23.13
70415;BMP280;57837;52.064;113.478;2023-07-29T14:25:39;93195.88;;;23.04
70415;BMP280;57837;52.064;113.478;2023-07-29T14:28:43;93199.78;;;22.88
70415;BMP280;57837;52.064;113.478;2023-07-29T14:31:46;93201.91;;;22.75
70415;BMP280;57837;52.064;113.478;2023-07-29T14:34:50;93207.16;;;22.67
70415;BMP280;57837;52.064;113.478;2023-07-29T14:37:54;93202.94;;;22.64
70415;BMP280;57837;52.064;113.478;2023-07-29T14:40:58;93203.66;;;22.57
70415;BMP280;57837;52.064;113.478;2023-07-29T14:44:01;93213.84;;;22.60
70415;BMP280;57837;52.064;113.478;2023-07-29T14:47:07;93219.69;;;22.59
70415;BMP280;57837;52.064;113.478;2023-07-29T14:50:10;93212.44;;;22.52
70415;BMP280;57837;52.064;113.478;2023-07-29T14:53:14;93204.84;;;22.48
70415;BMP280;57837;52.064;113.478;2023-07-29T14:56:18;93202.75;;;22.47
70415;BMP280;57837;52.064;113.478;2023-07-29T14:59:24;93208.22;;;22.49
70415;BMP280;57837;52.064;113.478;2023-07-29T15:02:28;93210.66;;;22.39
70415;BMP280;57837;52.064;113.478;2023-07-29T15:05:31;93215.06;;;22.22
70415;BMP280;57837;52.064;113.478;2023-07-29T15:08:34;93221.53;;;22.05
70415;BMP280;57837;52.064;113.478;2023-07-29T15:11:38;93217.59;;;21.91
70415;BMP280;57837;52.064;113.478;2023-07-29T15:14:43;93221.25;;;21.88
70415;BMP280;57837;52.064;113.478;2023-07-29T15:17:47;93217.41;;;21.89
70415;BMP280;57837;52.064;113.478;2023-07-29T15:20:51;93220.56;;;21.80
70415;BMP280;57837;52.064;113.478;2023-07-29T15:23:54;93212.97;;;21.77
70415;BMP280;57837;52.064;113.478;2023-07-29T15:26:57;93224.00;;;21.68
70415;BMP280;57837;52.064;113.478;2023-07-29T15:30:01;93227.47;;;21.55
70415;BMP280;57837;52.064;113.478;2023-07-29T15:33:05;93220.75;;;21.46
70415;BMP280;57837;52.064;113.478;2023-07-29T15:36:09;93224.97;;;21.49
70415;BMP280;57837;52.064;113.478;2023-07-29T15:39:13;93214.28;;;21.55
70415;BMP280;57837;52.064;113.478;2023-07-29T15:42:17;93210.25;;;21.54
70415;BMP280;57837;52.064;113.478;2023-07-29T15:45:20;93208.84;;;21.53
70415;BMP280;57837;52.064;113.478;2023-07-29T15:48:26;93215.16;;;21.50
70415;BMP280;57837;52.064;113.478;2023-07-29T15:51:30;93207.72;;;21.41
70415;BMP280;57837;52.064;113.478;2023-07-29T15:54:34;93211.41;;;21.38
70415;BMP280;57837;52.064;113.478;2023-07-29T15:57:37;93212.94;;;21.33
70415;BMP280;57837;52.064;113.478;2023-07-29T16:00:40;93209.00;;;21.19
70415;BMP280;57837;52.064;113.478;2023-07-29T16:03:43;93208.38;;;21.05
70415;BMP280;57837;52.064;113.478;2023-07-29T16:06:46;93211.41;;;21.09
70415;BMP280;57837;52.064;113.478;2023-07-29T16:09:50;93219.47;;;21.11
70415;BMP280;57837;52.064;113.478;2023-07-29T16:12:53;93224.19;;;21.05
70415;BMP280;57837;52.064;113.478;2023-07-29T16:15:56;93217.50;;;21.04
70415;BMP280;57837;52.064;113.478;2023-07-29T16:19:00;93223.94;;;20.96
70415;BMP280;57837;52.064;113.478;2023-07-29T16:22:05;93226.50;;;20.88
70415;BMP280;57837;52.064;113.478;2023-07-29T16:25:08;93222.72;;;20.76
70415;BMP280;57837;52.064;113.478;2023-07-29T16:28:12;93225.69;;;20.73
70415;BMP280;57837;52.064;113.478;2023-07-29T16:31:15;93224.63;;;20.76
70415;BMP280;57837;52.064;113.478;2023-07-29T16:34:18;93231.66;;;20.73
70415;BMP280;57837;52.064;113.478;2023-07-29T16:37:21;93228.06;;;20.63
70415;BMP280;57837;52.064;113.478;2023-07-29T16:40:24;93225.75;;;20.59
70415;BMP280;57837;52.064;113.478;2023-07-29T16:43:27;93231.81;;;20.54
70415;BMP280;57837;52.064;113.478;2023-07-29T16:46:31;93245.31;;;20.51
70415;BMP280;57837;52.064;113.478;2023-07-29T16:49:36;93253.91;;;20.51
70415;BMP280;57837;52.064;113.478;2023-07-29T16:52:43;93255.78;;;20.43
70415;BMP280;57837;52.064;113.478;2023-07-29T16:55:47;93265.94;;;20.47
70415;BMP280;57837;52.064;113.478;2023-07-29T16:58:50;93253.84;;;20.44
70415;BMP280;57837;52.064;113.478;2023-07-29T17:01:54;93252.03;;;20.39
70415;BMP280;57837;52.064;113.478;2023-07-29T17:04:58;93248.09;;;20.32
70415;BMP280;57837;52.064;113.478;2023-07-29T17:08:02;93249.31;;;20.31
70415;BMP280;57837;52.064;113.478;2023-07-29T17:11:06;93256.50;;;20.31
70415;BMP280;57837;52.064;113.478;2023-07-29T17:14:10;93261.56;;;20.29
70415;BMP280;57837;52.064;113.478;2023-07-29T17:17:13;93259.13;;;20.31
70415;BMP280;57837;52.064;113.478;2023-07-29T17:20:17;93251.16;;;20.23
70415;BMP280;57837;52.064;113.478;2023-07-29T17:23:23;93258.13;;;20.21